Time;durP1;ratioP1;P1;durP2;ratioP2;P2;SDS_P1;SDS_P2;PMS_P1;PMS_P2;Temp;Humidity;BMP_temperature;BMP_pressure;BME280_temperature;BME280_humidity;BME280_pressure;Samples;Min_cycle;Max_cycle;Signal;HPM_P1;HPM_P2
2021/11/27 00:04:13;;;;;;;13.38;7.22;;;;;;;0.51;88.27;97460.63;8837639;33;20416;-73
2021/11/27 00:09:17;;;;;;;13.27;7.83;;;;;;;0.76;87.95;97446.09;8837331;33;20173;-72
2021/11/27 00:14:21;;;;;;;13.57;7.80;;;;;;;0.83;88.29;97449.91;8836687;33;20182;-73
2021/11/27 00:19:26;;;;;;;13.00;7.53;;;;;;;0.87;87.84;97439.06;8836687;33;20177;-73
2021/11/27 00:24:29;;;;;;;12.35;6.97;;;;;;;0.93;88.00;97438.50;8836853;33;20183;-72
2021/11/27 00:29:34;;;;;;;13.18;7.90;;;;;;;1.02;87.52;97437.72;8837012;33;20654;-73
2021/11/27 00:34:38;;;;;;;12.20;7.20;;;;;;;1.10;87.04;97439.66;8811604;33;20197;-73
2021/11/27 00:39:41;;;;;;;13.18;7.57;;;;;;;1.14;86.70;97433.97;8810694;33;20186;-73
2021/11/27 00:44:46;;;;;;;10.15;6.50;;;;;;;1.27;86.10;97428.44;8836568;33;20142;-73
2021/11/27 00:49:53;;;;;;;12.82;7.53;;;;;;;1.30;85.91;97427.31;8836452;33;20252;-73
2021/11/27 00:54:56;;;;;;;11.15;6.28;;;;;;;1.20;85.42;97436.06;8835478;33;20198;-74
2021/11/27 01:00:01;;;;;;;13.20;7.32;;;;;;;1.27;85.37;97423.16;8811443;33;20517;-73
2021/11/27 01:05:06;;;;;;;7.57;5.15;;;;;;;1.14;85.22;97428.69;8810649;33;20181;-73
2021/11/27 01:10:16;;;;;;;9.85;6.53;;;;;;;1.22;85.35;97430.66;8811325;33;20130;-73
2021/11/27 01:15:27;;;;;;;9.15;6.32;;;;;;;1.24;85.48;97429.53;8835733;33;20200;-73
2021/11/27 01:20:36;;;;;;;12.00;6.35;;;;;;;1.30;85.26;97422.88;8835438;33;20472;-73
2021/11/27 01:25:41;;;;;;;10.23;6.72;;;;;;;1.29;85.24;97418.56;8809232;33;20143;-73
2021/11/27 01:30:48;;;;;;;11.60;6.50;;;;;;;1.35;85.31;97414.53;8809076;33;20879;-73
2021/11/27 01:35:53;;;;;;;9.93;6.55;;;;;;;1.38;85.23;97420.38;8809676;33;20146;-73
2021/11/27 01:40:57;;;;;;;8.80;6.03;;;;;;;1.27;85.05;97412.56;8809451;33;20257;-73
2021/11/27 01:46:05;;;;;;;10.60;6.50;;;;;;;1.32;84.95;97409.47;8809694;33;21706;-74
2021/11/27 01:51:12;;;;;;;10.18;6.07;;;;;;;1.32;84.64;97415.63;8834588;33;20190;-73
2021/11/27 01:56:23;;;;;;;8.43;5.88;;;;;;;1.35;84.36;97414.53;8834271;33;20682;-73
2021/11/27 02:01:32;;;;;;;9.10;5.72;;;;;;;1.39;84.22;97400.88;8808670;33;20301;-74
2021/11/27 02:06:40;;;;;;;7.47;5.65;;;;;;;1.41;83.96;97406.03;8809187;33;20682;-73
2021/11/27 02:11:45;;;;;;;10.05;5.38;;;;;;;1.47;83.72;97408.94;8809203;33;20435;-73
2021/11/27 02:16:50;;;;;;;8.25;5.65;;;;;;;1.51;83.55;97404.22;8808444;33;20229;-73
2021/11/27 02:21:57;;;;;;;6.47;4.80;;;;;;;1.51;83.02;97409.50;8808589;33;20288;-73
2021/11/27 02:27:06;;;;;;;5.65;4.72;;;;;;;1.57;82.54;97413.41;8808320;33;20269;-74
2021/11/27 02:32:10;;;;;;;6.43;4.68;;;;;;;1.62;82.98;97417.31;8807773;33;20178;-72
2021/11/27 02:37:15;;;;;;;6.22;3.95;;;;;;;1.54;82.56;97413.66;8807948;33;20244;-73
2021/11/27 02:42:22;;;;;;;6.45;4.60;;;;;;;1.57;82.43;97408.94;8808450;33;20190;-74
2021/11/27 02:47:26;;;;;;;5.78;4.32;;;;;;;1.59;82.64;97401.72;8808439;33;21010;-71
2021/11/27 02:52:31;;;;;;;5.13;4.00;;;;;;;1.64;82.92;97404.75;8807873;33;20566;-73
2021/11/27 02:57:34;;;;;;;5.78;4.32;;;;;;;1.63;83.21;97402.25;8807954;33;20186;-73
2021/11/27 03:02:37;;;;;;;6.07;4.07;;;;;;;1.62;82.92;97406.72;8807889;33;20154;-72
2021/11/27 03:07:42;;;;;;;6.55;4.18;;;;;;;1.61;82.22;97406.84;8808165;33;20196;-73
2021/11/27 03:12:47;;;;;;;4.88;4.20;;;;;;;1.64;82.03;97412.69;8807862;33;20139;-72
2021/11/27 03:17:51;;;;;;;6.07;4.40;;;;;;;1.69;82.20;97412.28;8807952;33;20946;-73
2021/11/27 03:22:55;;;;;;;4.90;3.90;;;;;;;1.62;81.78;97401.44;8808563;33;20240;-72
2021/11/27 03:27:58;;;;;;;6.50;4.10;;;;;;;1.69;81.73;97404.34;8833197;33;20185;-73
2021/11/27 03:33:03;;;;;;;4.97;4.25;;;;;;;1.63;81.09;97420.78;8807309;33;20332;-72
2021/11/27 03:38:08;;;;;;;4.93;4.05;;;;;;;1.71;81.38;97411.16;8807274;33;20695;-72
2021/11/27 03:43:12;;;;;;;6.65;4.57;;;;;;;1.66;80.85;97413.38;8806897;33;20182;-72
2021/11/27 03:48:18;;;;;;;7.18;4.65;;;;;;;1.69;81.06;97417.56;8833461;33;20326;-72
2021/11/27 03:53:50;;;;;;;8.20;4.95;;;;;;;1.72;81.30;97420.75;8812744;33;20245;-72
2021/11/27 03:58:54;;;;;;;6.05;4.20;;;;;;;1.69;81.21;97414.91;8811337;33;20186;-72
2021/11/27 04:03:58;;;;;;;7.35;4.85;;;;;;;1.71;81.26;97423.56;8811972;33;20188;-72
2021/11/27 04:09:07;;;;;;;5.60;4.50;;;;;;;1.61;80.63;97430.66;8812195;33;20195;-72
2021/11/27 04:14:11;;;;;;;6.72;4.90;;;;;;;1.72;80.73;97430.50;8811957;33;21657;-72
2021/11/27 04:19:24;;;;;;;5.38;4.28;;;;;;;1.69;80.55;97428.16;8811692;33;20193;-72
2021/11/27 04:24:29;;;;;;;5.85;4.35;;;;;;;1.71;80.80;97440.28;8811753;33;20551;-72
2021/11/27 04:29:32;;;;;;;5.72;4.10;;;;;;;1.75;81.43;97443.47;8811288;33;20863;-72
2021/11/27 04:34:36;;;;;;;5.80;4.07;;;;;;;1.74;81.13;97449.75;8835923;33;20131;-71
2021/11/27 04:39:42;;;;;;;6.95;4.95;;;;;;;1.74;81.10;97462.97;8849372;33;20554;-72
2021/11/27 04:44:47;;;;;;;7.13;4.90;;;;;;;1.72;81.01;97473.69;8818357;33;21942;-72
2021/11/27 04:49:50;;;;;;;5.53;4.18;;;;;;;1.70;81.16;97464.22;8811613;33;20776;-72
2021/11/27 04:54:55;;;;;;;5.43;3.97;;;;;;;1.72;80.83;97478.16;8810818;33;20184;-72
2021/11/27 04:59:59;;;;;;;7.82;4.57;;;;;;;1.70;80.87;97472.16;8810175;33;20616;-72
2021/11/27 05:05:02;;;;;;;6.45;4.22;;;;;;;1.74;81.03;97478.84;8811047;33;20182;-72
2021/11/27 05:10:08;;;;;;;7.75;5.15;;;;;;;1.78;80.83;97489.97;8810041;33;20150;-73
2021/11/27 05:15:12;;;;;;;7.13;4.75;;;;;;;1.76;80.94;97486.66;8810268;33;20677;-72
2021/11/27 05:20:19;;;;;;;5.90;4.28;;;;;;;1.81;81.39;97477.31;8809990;33;21105;-73
2021/11/27 05:25:23;;;;;;;6.80;4.35;;;;;;;1.76;81.64;97484.84;8810741;33;20607;-72
2021/11/27 05:31:01;;;;;;;5.75;3.90;;;;;;;1.70;81.53;97488.03;8835575;33;20230;-72
2021/11/27 05:36:06;;;;;;;4.60;3.47;;;;;;;1.67;81.24;97489.16;8809389;33;20226;-73
2021/11/27 05:41:10;;;;;;;5.45;3.83;;;;;;;1.65;81.25;97485.81;8809896;33;21668;-73
2021/11/27 05:46:13;;;;;;;5.70;4.82;;;;;;;1.69;81.77;97492.47;8809906;33;20438;-72
2021/11/27 05:51:18;;;;;;;5.10;4.18;;;;;;;1.72;81.80;97499.31;8810039;33;20941;-72
2021/11/27 05:56:22;;;;;;;6.80;4.32;;;;;;;1.72;81.77;97502.78;8833975;33;20213;-73
2021/11/27 06:01:25;;;;;;;5.80;4.43;;;;;;;1.73;81.55;97499.19;8834373;33;20469;-72
2021/11/27 06:06:28;;;;;;;5.70;4.47;;;;;;;1.70;81.22;97512.69;8834691;33;20272;-72
2021/11/27 06:11:32;;;;;;;5.60;4.22;;;;;;;1.71;80.86;97524.94;8833984;33;20728;-73
2021/11/27 06:16:36;;;;;;;4.80;3.72;;;;;;;1.78;81.50;97533.16;8834067;33;20150;-73
2021/11/27 06:21:39;;;;;;;4.68;3.90;;;;;;;1.73;81.28;97527.47;8833740;33;20186;-72
2021/11/27 06:26:45;;;;;;;5.88;4.22;;;;;;;1.80;81.46;97533.88;8834175;33;20786;-72
2021/11/27 06:31:48;;;;;;;5.70;4.32;;;;;;;1.82;81.60;97546.97;8835041;33;20178;-71
2021/11/27 06:36:51;;;;;;;4.90;4.10;;;;;;;1.83;81.80;97544.16;8809760;33;20245;-72
2021/11/27 06:41:56;;;;;;;7.55;5.18;;;;;;;1.85;81.66;97558.09;8835562;33;20189;-72
2021/11/27 06:47:25;;;;;;;6.65;4.70;;;;;;;1.83;81.21;97560.03;8829805;33;20150;-72
2021/11/27 06:52:28;;;;;;;6.90;4.53;;;;;;;1.80;80.74;97567.44;8835102;33;20178;-73
2021/11/27 06:57:33;;;;;;;6.53;4.93;;;;;;;1.88;81.13;97572.88;8834896;33;20234;-73
2021/11/27 07:02:36;;;;;;;7.25;4.82;;;;;;;1.72;80.88;97581.34;8834257;33;20731;-72
2021/11/27 07:07:57;;;;;;;8.20;5.05;;;;;;;1.87;81.43;97593.22;8835006;33;20867;-73
2021/11/27 07:13:03;;;;;;;7.22;5.28;;;;;;;1.82;81.40;97591.97;8835008;33;20143;-72
2021/11/27 07:18:07;;;;;;;7.07;4.88;;;;;;;1.82;81.45;97599.91;8809265;33;20186;-72
2021/11/27 07:23:10;;;;;;;6.13;4.68;;;;;;;1.83;81.24;97605.03;8808991;33;20181;-72
2021/11/27 07:28:15;;;;;;;5.70;4.03;;;;;;;1.88;81.16;97613.41;8839893;33;20222;-72
2021/11/27 07:33:20;;;;;;;8.27;4.97;;;;;;;1.93;81.41;97613.84;8826621;33;20177;-72
2021/11/27 07:38:26;;;;;;;7.07;5.53;;;;;;;1.92;80.80;97609.53;8810530;33;20182;-72
2021/11/27 07:43:30;;;;;;;8.73;4.97;;;;;;;1.98;80.85;97625.84;8809927;32;20174;-72
2021/11/27 07:48:39;;;;;;;7.03;5.28;;;;;;;2.08;81.33;97635.44;8785052;33;20178;-72
2021/11/27 07:54:03;;;;;;;8.27;5.60;;;;;;;2.09;81.33;97636.31;8806468;33;20150;-72
2021/11/27 07:59:07;;;;;;;8.45;5.47;;;;;;;2.10;81.11;97652.03;8821652;33;20193;-72
2021/11/27 08:04:10;;;;;;;6.57;5.88;;;;;;;2.09;81.68;97649.56;8839671;33;20151;-72
2021/11/27 08:09:13;;;;;;;4.70;3.78;;;;;;;1.91;81.80;97655.50;8839949;33;20786;-74
2021/11/27 08:14:18;;;;;;;5.25;4.32;;;;;;;1.91;82.64;97665.25;8840080;33;20185;-74
2021/11/27 08:19:21;;;;;;;5.78;4.43;;;;;;;1.94;82.42;97662.31;8804044;33;20140;-71
2021/11/27 08:24:26;;;;;;;5.20;3.95;;;;;;;1.92;81.86;97682.78;8839548;33;20146;-73
2021/11/27 08:29:30;;;;;;;3.95;3.25;;;;;;;1.84;81.31;97686.13;8837651;33;21877;-72
2021/11/27 08:34:34;;;;;;;5.47;3.67;;;;;;;1.87;80.96;97692.97;8837787;33;20277;-72
2021/11/27 08:39:37;;;;;;;5.03;3.45;;;;;;;1.87;80.68;97685.88;8836055;33;20190;-72
2021/11/27 08:44:41;;;;;;;4.65;3.67;;;;;;;1.79;80.49;97703.41;8837029;33;20247;-72
2021/11/27 08:49:45;;;;;;;5.50;3.53;;;;;;;1.98;79.84;97711.41;8835639;33;21119;-72
2021/11/27 08:54:49;;;;;;;5.32;3.70;;;;;;;1.47;77.92;97729.00;8811702;33;21767;-73
2021/11/27 08:59:53;;;;;;;8.68;6.25;;;;;;;1.60;77.74;97731.44;8835611;33;21018;-74
2021/11/27 09:04:57;;;;;;;10.90;6.90;;;;;;;1.50;77.86;97735.84;8835964;33;20978;-74
2021/11/27 09:10:00;;;;;;;11.82;6.93;;;;;;;1.18;78.15;97765.88;8837581;33;20214;-74
2021/11/27 09:15:06;;;;;;;18.77;9.70;;;;;;;1.44;78.69;97753.09;8838214;33;20621;-73
2021/11/27 09:20:10;;;;;;;12.48;7.47;;;;;;;1.28;78.47;97771.22;8835210;33;20166;-73
2021/11/27 09:25:13;;;;;;;22.33;11.63;;;;;;;1.49;78.16;97768.56;8835956;33;20186;-73
2021/11/27 09:30:17;;;;;;;13.70;7.32;;;;;;;1.50;76.59;97773.72;8810054;33;20178;-73
2021/11/27 09:35:21;;;;;;;19.08;9.70;;;;;;;1.52;76.81;97780.69;8836013;33;20186;-74
2021/11/27 09:40:25;;;;;;;17.38;8.88;;;;;;;1.67;76.73;97774.94;8835239;33;20135;-73
2021/11/27 09:45:31;;;;;;;17.45;7.38;;;;;;;1.44;77.14;97787.47;8835574;33;21071;-73
2021/11/27 09:50:34;;;;;;;18.50;9.68;;;;;;;1.69;76.60;97793.31;8825194;33;20471;-73
2021/11/27 09:55:38;;;;;;;20.58;10.43;;;;;;;2.03;76.65;97791.25;8803717;33;20238;-72
2021/11/27 10:00:43;;;;;;;22.35;9.40;;;;;;;1.73;76.93;97805.34;8804542;33;20193;-73
2021/11/27 10:05:48;;;;;;;17.85;9.15;;;;;;;1.73;77.13;97807.97;8822823;33;20253;-73
2021/11/27 10:10:51;;;;;;;18.80;10.32;;;;;;;1.59;77.95;97818.88;8850742;33;20326;-73
2021/11/27 10:15:56;;;;;;;22.67;10.35;;;;;;;1.90;77.87;97814.47;8816103;33;20289;-74
2021/11/27 10:21:17;;;;;;;19.17;10.15;;;;;;;1.95;77.40;97817.56;8803895;33;20240;-73
2021/11/27 10:26:39;;;;;;;21.17;9.80;;;;;;;1.85;77.39;97822.78;8803636;33;20190;-74
2021/11/27 10:31:44;;;;;;;20.73;10.93;;;;;;;2.03;78.18;97827.47;8803508;33;20178;-74
2021/11/27 10:36:47;;;;;;;24.30;9.85;;;;;;;2.09;77.01;97827.78;8803537;33;20182;-74
2021/11/27 10:41:59;;;;;;;18.15;9.32;;;;;;;2.03;77.42;97838.94;8804138;33;20683;-74
2021/11/27 10:47:13;;;;;;;25.92;12.02;;;;;;;2.19;76.77;97833.13;8803010;33;20143;-73
2021/11/27 10:52:18;;;;;;;22.02;10.77;;;;;;;2.27;76.63;97838.59;8803547;33;20186;-73
2021/11/27 10:57:33;;;;;;;26.75;10.75;;;;;;;2.31;75.96;97845.31;8776784;33;20463;-73
2021/11/27 11:02:40;;;;;;;26.45;12.23;;;;;;;2.49;76.20;97839.34;8811858;33;20122;-74
2021/11/27 11:07:53;;;;;;;22.55;11.23;;;;;;;2.65;76.21;97834.41;8839782;33;20217;-73
2021/11/27 11:12:59;;;;;;;20.67;10.80;;;;;;;2.52;76.15;97841.72;8839061;33;20197;-74
2021/11/27 11:18:18;;;;;;;17.90;8.70;;;;;;;2.37;76.21;97851.88;8839640;33;20728;-73
2021/11/27 11:23:23;;;;;;;24.08;11.50;;;;;;;2.40;76.43;97854.25;8839044;33;20592;-74
2021/11/27 11:28:30;;;;;;;23.98;9.85;;;;;;;2.40;76.05;97860.38;8814978;33;20648;-73
2021/11/27 11:33:38;;;;;;;23.98;11.70;;;;;;;2.48;76.23;97854.41;8832914;33;20931;-72
2021/11/27 11:38:45;;;;;;;22.45;10.80;;;;;;;2.60;75.41;97866.59;8837025;33;20134;-72
2021/11/27 11:43:50;;;;;;;23.02;10.60;;;;;;;2.64;75.36;97869.00;8837948;33;20192;-72
2021/11/27 11:48:57;;;;;;;21.85;11.05;;;;;;;2.82;74.73;97873.50;8809520;33;20470;-73
2021/11/27 11:54:02;;;;;;;18.30;9.18;;;;;;;2.65;74.31;97892.72;8808544;33;20788;-73
2021/11/27 11:59:25;;;;;;;22.35;9.60;;;;;;;2.75;74.25;97884.81;8806116;33;20944;-73
2021/11/27 12:04:30;;;;;;;22.55;10.30;;;;;;;2.93;73.69;97869.88;8785010;33;22022;-73
2021/11/27 12:09:33;;;;;;;19.17;10.32;;;;;;;2.83;73.24;97884.97;8789712;33;20195;-73
2021/11/27 12:15:07;;;;;;;20.92;10.32;;;;;;;3.00;73.25;97880.81;8780963;33;20465;-73
2021/11/27 12:20:18;;;;;;;20.30;10.30;;;;;;;2.90;73.64;97879.94;8778887;33;20551;-74
2021/11/27 12:25:26;;;;;;;18.20;9.90;;;;;;;2.92;73.43;97883.31;8780716;33;20182;-73
2021/11/27 12:30:31;;;;;;;20.25;9.52;;;;;;;3.04;73.00;97885.72;8777577;33;20214;-73
2021/11/27 12:35:48;;;;;;;18.77;9.02;;;;;;;2.99;73.34;97898.53;8778234;33;21061;-72
2021/11/27 12:40:51;;;;;;;15.10;8.98;;;;;;;2.96;73.11;97900.59;8778142;33;20147;-72
2021/11/27 12:45:57;;;;;;;13.57;8.45;;;;;;;2.86;73.72;97905.91;8803489;33;20253;-72
2021/11/27 12:51:23;;;;;;;14.77;8.63;;;;;;;3.01;73.30;97904.50;8836459;33;20299;-73
2021/11/27 12:56:26;;;;;;;14.95;8.10;;;;;;;3.01;72.63;97901.88;8796399;33;20255;-72
2021/11/27 13:01:32;;;;;;;14.25;7.72;;;;;;;2.94;72.79;97919.31;8779678;33;20147;-73
2021/11/27 13:06:40;;;;;;;14.65;8.35;;;;;;;2.97;72.87;97921.69;8777354;33;20230;-73
2021/11/27 13:11:46;;;;;;;11.10;7.68;;;;;;;3.10;72.96;97918.78;8777027;33;20212;-74
2021/11/27 13:16:49;;;;;;;16.30;9.25;;;;;;;2.98;73.48;97925.19;8778084;33;20156;-72
2021/11/27 13:21:54;;;;;;;19.23;8.55;;;;;;;2.89;73.29;97926.00;8751995;33;20147;-72
2021/11/27 13:26:57;;;;;;;15.70;8.88;;;;;;;3.03;72.52;97930.91;8776541;33;20143;-73
2021/11/27 13:32:02;;;;;;;15.07;7.95;;;;;;;3.16;72.74;97936.81;8776107;33;20231;-73
2021/11/27 13:37:06;;;;;;;19.08;9.38;;;;;;;3.13;72.50;97939.75;8776730;33;20178;-72
2021/11/27 13:42:14;;;;;;;17.05;9.23;;;;;;;3.14;72.29;97956.50;8776921;33;20671;-73
2021/11/27 13:47:26;;;;;;;17.15;9.00;;;;;;;3.05;72.54;97963.44;8797817;33;20188;-72
2021/11/27 13:52:36;;;;;;;19.70;8.27;;;;;;;2.76;72.03;97985.38;8805229;33;20300;-73
2021/11/27 13:57:44;;;;;;;22.55;10.88;;;;;;;2.71;72.16;97981.47;8804268;33;21750;-72
2021/11/27 14:02:48;;;;;;;19.15;11.02;;;;;;;2.61;71.99;97995.53;8803768;33;20713;-72
2021/11/27 14:07:52;;;;;;;19.77;10.63;;;;;;;2.71;71.44;97984.94;8805518;33;20178;-72
2021/11/27 14:13:03;;;;;;;26.05;12.43;;;;;;;2.88;71.36;97990.59;8779677;33;20193;-72
2021/11/27 14:18:12;;;;;;;19.33;11.05;;;;;;;2.98;71.08;97999.44;8807218;33;20281;-73
2021/11/27 14:23:19;;;;;;;20.00;11.13;;;;;;;2.91;71.32;98008.88;8805766;33;20179;-73
2021/11/27 14:28:22;;;;;;;20.85;10.50;;;;;;;2.96;70.97;98017.28;8802687;33;20245;-73
2021/11/27 14:33:27;;;;;;;24.23;11.05;;;;;;;2.98;70.71;98007.38;8801274;33;20277;-73
2021/11/27 14:38:45;;;;;;;16.95;7.18;;;;;;;2.92;70.50;98015.88;8802508;33;20297;-72
2021/11/27 14:43:56;;;;;;;19.65;10.68;;;;;;;3.12;70.41;98016.78;8803051;33;20142;-73
2021/11/27 14:49:00;;;;;;;19.13;11.07;;;;;;;3.19;70.87;98012.63;8774953;33;20243;-72
2021/11/27 14:54:04;;;;;;;22.42;10.95;;;;;;;3.22;70.82;98022.97;8749685;33;20634;-73
2021/11/27 14:59:07;;;;;;;22.00;11.65;;;;;;;3.19;70.11;98032.03;8775637;33;21067;-73
2021/11/27 15:04:11;;;;;;;21.25;10.55;;;;;;;3.13;70.20;98032.56;8782553;33;20169;-72
2021/11/27 15:09:15;;;;;;;19.90;10.75;;;;;;;3.10;70.56;98026.69;8797472;33;20186;-72
2021/11/27 15:14:19;;;;;;;22.80;11.38;;;;;;;2.86;71.58;98033.16;8774960;33;21411;-72
2021/11/27 15:19:22;;;;;;;21.80;10.80;;;;;;;2.92;71.43;98048.53;8774149;33;20245;-72
2021/11/27 15:24:27;;;;;;;20.77;10.73;;;;;;;3.04;71.26;98044.84;8774905;33;20195;-71
2021/11/27 15:29:30;;;;;;;21.52;10.57;;;;;;;2.96;71.44;98049.09;8773525;33;20239;-72
2021/11/27 15:34:35;;;;;;;30.85;11.40;;;;;;;3.00;71.41;98056.66;8774075;33;20178;-73
2021/11/27 15:39:39;;;;;;;23.23;11.05;;;;;;;3.02;71.91;98068.00;8774026;33;21574;-73
2021/11/27 15:44:43;;;;;;;20.73;10.00;;;;;;;3.04;71.05;98073.16;8774585;33;22031;-73
2021/11/27 15:49:47;;;;;;;21.38;10.80;;;;;;;3.05;70.59;98073.03;8798216;33;20233;-73
2021/11/27 15:54:52;;;;;;;16.55;10.30;;;;;;;3.05;70.56;98072.19;8828048;33;20180;-73
2021/11/27 15:59:55;;;;;;;22.05;11.27;;;;;;;3.00;70.53;98075.22;8817200;33;20228;-72
2021/11/27 16:04:58;;;;;;;18.27;9.10;;;;;;;2.89;70.96;98074.50;8808907;33;20564;-72
2021/11/27 16:10:04;;;;;;;16.10;9.45;;;;;;;2.72;71.34;98099.78;8806486;33;20224;-73
2021/11/27 16:15:09;;;;;;;21.85;9.82;;;;;;;2.63;71.04;98104.03;8805760;33;20163;-73
2021/11/27 16:20:12;;;;;;;19.48;8.75;;;;;;;2.63;71.06;98101.38;8778529;33;20774;-72
2021/11/27 16:25:19;;;;;;;15.57;8.68;;;;;;;2.55;70.89;98114.44;8780290;33;20136;-73
2021/11/27 16:30:22;;;;;;;15.70;8.55;;;;;;;2.47;70.90;98115.06;8778400;33;20189;-74
2021/11/27 16:35:26;;;;;;;16.92;8.20;;;;;;;2.25;70.92;98121.31;8778907;33;20179;-73
2021/11/27 16:40:31;;;;;;;16.48;8.57;;;;;;;2.30;70.54;98132.34;8788844;33;20273;-73
2021/11/27 16:45:34;;;;;;;14.27;8.60;;;;;;;2.28;70.47;98138.78;8804803;33;20183;-73
2021/11/27 16:50:38;;;;;;;17.13;8.13;;;;;;;2.21;70.29;98142.88;8815307;33;20175;-73
2021/11/27 16:55:42;;;;;;;14.02;8.30;;;;;;;2.19;69.78;98150.94;8811761;33;20197;-73
2021/11/27 17:00:45;;;;;;;15.02;7.95;;;;;;;2.11;70.03;98148.94;8806540;33;21071;-73
2021/11/27 17:05:52;;;;;;;21.73;8.20;;;;;;;2.05;68.99;98159.19;8821115;33;20142;-73
2021/11/27 17:11:00;;;;;;;19.35;8.88;;;;;;;2.02;68.52;98165.56;8833560;33;20150;-73
2021/11/27 17:16:04;;;;;;;13.25;7.20;;;;;;;1.98;68.39;98152.72;8836188;33;20141;-74
2021/11/27 17:21:08;;;;;;;11.57;8.05;;;;;;;1.88;67.95;98166.69;8803359;33;20181;-73
2021/11/27 17:26:12;;;;;;;12.30;7.18;;;;;;;1.82;67.83;98171.63;8819319;33;20164;-73
2021/11/27 17:31:16;;;;;;;14.95;7.80;;;;;;;1.75;67.89;98171.25;8811573;33;20949;-73
2021/11/27 17:36:20;;;;;;;13.43;8.02;;;;;;;1.65;68.34;98179.13;8831162;33;20258;-73
2021/11/27 17:41:24;;;;;;;13.75;6.55;;;;;;;1.58;67.92;98185.84;8803282;33;20256;-73
2021/11/27 17:46:27;;;;;;;13.45;7.90;;;;;;;1.56;68.00;98192.22;8804316;33;20149;-73
2021/11/27 17:51:30;;;;;;;24.55;11.40;;;;;;;1.46;68.34;98203.53;8804649;33;20178;-73
2021/11/27 17:56:36;;;;;;;31.95;15.15;;;;;;;1.45;68.20;98207.16;8782457;33;21958;-73
2021/11/27 18:01:41;;;;;;;44.25;23.45;;;;;;;1.44;68.26;98204.63;8774696;33;20274;-72
2021/11/27 18:06:45;;;;;;;21.75;10.52;;;;;;;1.38;68.33;98211.22;8775415;33;20179;-73
2021/11/27 18:11:49;;;;;;;15.35;8.77;;;;;;;1.35;68.62;98210.63;8774814;33;20286;-73
2021/11/27 18:16:52;;;;;;;15.07;8.95;;;;;;;1.27;69.11;98227.09;8774716;33;20840;-73
2021/11/27 18:21:56;;;;;;;21.23;9.40;;;;;;;1.19;69.42;98234.75;8774851;33;20247;-73
2021/11/27 18:27:25;;;;;;;16.83;9.75;;;;;;;1.13;69.96;98237.88;8750258;33;20183;-73
2021/11/27 18:32:28;;;;;;;17.00;10.63;;;;;;;1.03;70.35;98243.84;8775163;33;20234;-73
2021/11/27 18:37:31;;;;;;;18.20;9.32;;;;;;;0.94;70.55;98252.47;8774328;33;20132;-73
2021/11/27 18:42:37;;;;;;;14.77;9.00;;;;;;;0.88;71.01;98250.31;8774789;33;20185;-73
2021/11/27 18:47:40;;;;;;;14.07;9.35;;;;;;;0.85;71.02;98258.47;8774732;33;20244;-73
2021/11/27 18:52:43;;;;;;;16.05;8.85;;;;;;;0.80;71.13;98263.25;8775669;33;20269;-72
2021/11/27 18:57:48;;;;;;;17.80;9.15;;;;;;;0.79;71.31;98267.66;8773965;33;20271;-73
2021/11/27 19:02:51;;;;;;;12.10;9.00;;;;;;;0.77;71.35;98272.25;8774191;33;20191;-73
2021/11/27 19:07:54;;;;;;;20.65;10.05;;;;;;;0.72;71.66;98276.19;8774829;33;20151;-72
2021/11/27 19:12:59;;;;;;;17.58;9.63;;;;;;;0.67;71.38;98273.03;8774208;33;20216;-73
2021/11/27 19:18:07;;;;;;;20.35;10.45;;;;;;;0.59;72.05;98278.88;8748820;33;20464;-72
2021/11/27 19:23:10;;;;;;;16.73;10.27;;;;;;;0.54;72.04;98283.66;8779243;33;20641;-73
2021/11/27 19:28:15;;;;;;;20.50;11.05;;;;;;;0.45;72.29;98286.97;8783774;33;20474;-72
2021/11/27 19:33:18;;;;;;;18.27;10.82;;;;;;;0.26;72.68;98283.03;8813643;33;20677;-73
2021/11/27 19:38:21;;;;;;;16.73;9.70;;;;;;;0.30;72.01;98289.78;8838838;33;20874;-72
2021/11/27 19:43:27;;;;;;;21.15;9.68;;;;;;;0.43;71.59;98278.31;8838622;33;20149;-73
2021/11/27 19:48:30;;;;;;;15.90;10.25;;;;;;;0.44;71.58;98287.91;8838883;33;20186;-73
2021/11/27 19:53:33;;;;;;;20.15;10.15;;;;;;;0.41;71.59;98291.63;8830344;33;20193;-73
2021/11/27 19:58:38;;;;;;;19.90;10.32;;;;;;;0.35;71.75;98303.47;8806654;33;20202;-73
2021/11/27 20:03:42;;;;;;;15.90;9.68;;;;;;;0.38;71.77;98295.34;8809251;33;20699;-73
2021/11/27 20:08:45;;;;;;;19.47;12.47;;;;;;;0.43;71.35;98305.56;8806360;33;20807;-73
2021/11/27 20:13:55;;;;;;;17.73;9.75;;;;;;;0.38;71.63;98316.50;8812658;33;20238;-72
2021/11/27 20:18:59;;;;;;;17.63;9.63;;;;;;;0.41;71.57;98317.19;8806304;33;20287;-72
2021/11/27 20:24:03;;;;;;;17.85;8.93;;;;;;;0.43;71.73;98324.06;8786358;33;20175;-72
2021/11/27 20:29:08;;;;;;;15.68;10.27;;;;;;;0.44;71.34;98325.78;8778186;33;20204;-72
2021/11/27 20:34:12;;;;;;;16.45;11.30;;;;;;;0.45;71.50;98324.81;8777514;33;21075;-72
2021/11/27 20:39:15;;;;;;;13.57;7.45;;;;;;;0.41;71.56;98339.16;8789052;33;20256;-73
2021/11/27 20:44:19;;;;;;;17.30;9.73;;;;;;;0.38;71.94;98336.75;8807501;33;20437;-72
2021/11/27 20:49:24;;;;;;;17.85;11.43;;;;;;;0.31;71.95;98335.53;8809948;33;20597;-71
2021/11/27 20:54:27;;;;;;;17.00;9.23;;;;;;;0.19;72.35;98342.50;8837240;33;20236;-72
2021/11/27 20:59:31;;;;;;;15.43;9.90;;;;;;;0.08;72.64;98348.56;8806106;33;21507;-72
2021/11/27 21:04:35;;;;;;;15.55;9.00;;;;;;;0.03;72.89;98342.75;8794004;33;20163;-72
2021/11/27 21:09:38;;;;;;;16.95;8.98;;;;;;;-0.06;73.37;98349.50;8803098;33;20272;-72
2021/11/27 21:14:44;;;;;;;14.77;8.30;;;;;;;-0.07;73.38;98346.97;8782876;33;20819;-73
2021/11/27 21:19:47;;;;;;;13.57;8.68;;;;;;;-0.11;73.63;98349.00;8806525;33;20169;-72
2021/11/27 21:24:50;;;;;;;14.40;8.63;;;;;;;-0.16;73.53;98358.19;8803383;33;20186;-72
2021/11/27 21:29:55;;;;;;;17.88;8.48;;;;;;;-0.16;73.62;98355.53;8806300;33;20138;-72
2021/11/27 21:34:58;;;;;;;15.20;9.27;;;;;;;-0.20;73.52;98362.81;8804489;33;20623;-73
2021/11/27 21:40:01;;;;;;;15.63;10.10;;;;;;;-0.35;73.52;98358.59;8777629;33;20132;-73
2021/11/27 21:45:08;;;;;;;13.83;8.27;;;;;;;-0.47;74.31;98359.41;8804548;33;20267;-72
2021/11/27 21:50:11;;;;;;;14.00;8.33;;;;;;;-0.52;74.71;98359.75;8817385;33;20216;-72
2021/11/27 21:55:15;;;;;;;12.67;7.47;;;;;;;-0.43;74.78;98356.47;8840728;33;20474;-72
2021/11/27 22:00:19;;;;;;;13.05;7.72;;;;;;;-0.44;74.68;98360.03;8799182;33;20277;-72
2021/11/27 22:05:26;;;;;;;18.65;9.02;;;;;;;-0.51;74.44;98364.06;8795245;33;20452;-73
2021/11/27 22:10:30;;;;;;;13.43;8.00;;;;;;;-0.47;74.52;98372.59;8801084;33;20262;-72
2021/11/27 22:15:35;;;;;;;14.13;8.83;;;;;;;-0.52;74.41;98372.94;8781370;33;20596;-73
2021/11/27 22:20:42;;;;;;;13.43;7.97;;;;;;;-0.45;74.17;98378.63;8775249;33;20174;-72
2021/11/27 22:25:46;;;;;;;11.85;7.68;;;;;;;-0.41;73.93;98380.97;8775709;33;20194;-73
2021/11/27 22:30:50;;;;;;;11.33;7.37;;;;;;;-0.52;73.88;98381.69;8776810;33;20309;-73
2021/11/27 22:35:54;;;;;;;14.50;7.53;;;;;;;-0.48;74.07;98384.97;8775051;33;20600;-73
2021/11/27 22:40:57;;;;;;;14.13;6.23;;;;;;;-0.44;74.00;98381.16;8775042;33;20186;-73
2021/11/27 22:46:03;;;;;;;12.03;7.13;;;;;;;-0.41;73.68;98372.19;8750307;33;20175;-73
2021/11/27 22:51:06;;;;;;;12.57;6.93;;;;;;;-0.37;73.86;98378.97;8774432;33;21078;-73
2021/11/27 22:56:11;;;;;;;13.77;6.60;;;;;;;-0.25;73.03;98380.75;8773975;33;20873;-73
2021/11/27 23:01:18;;;;;;;11.32;6.50;;;;;;;-0.19;72.88;98369.78;8773829;33;21369;-72
2021/11/27 23:06:21;;;;;;;11.27;6.40;;;;;;;-0.17;72.62;98378.44;8773056;33;20152;-73
2021/11/27 23:11:28;;;;;;;11.07;6.32;;;;;;;-0.07;72.39;98374.22;8772708;33;20235;-73
2021/11/27 23:16:34;;;;;;;11.77;7.10;;;;;;;-0.06;71.99;98377.69;8772965;33;20247;-72
2021/11/27 23:21:41;;;;;;;11.95;6.25;;;;;;;-0.07;72.14;98382.13;8772342;33;20179;-73
2021/11/27 23:26:44;;;;;;;10.93;6.00;;;;;;;-0.13;71.95;98382.56;8772428;33;20857;-73
2021/11/27 23:31:51;;;;;;;9.10;6.32;;;;;;;-0.18;72.11;98383.81;8772381;33;20582;-72
2021/11/27 23:36:55;;;;;;;11.27;6.30;;;;;;;-0.27;72.46;98382.66;8747449;33;20179;-73
2021/11/27 23:41:58;;;;;;;9.95;5.78;;;;;;;-0.30;72.41;98365.25;8772601;33;20194;-72
2021/11/27 23:47:03;;;;;;;8.95;5.68;;;;;;;-0.29;72.34;98379.28;8747665;33;20519;-73
2021/11/27 23:52:06;;;;;;;11.93;6.37;;;;;;;-0.32;72.63;98390.88;8773016;33;20592;-72
2021/11/27 23:57:15;;;;;;;9.67;5.70;;;;;;;-0.29;72.60;98395.13;8772610;33;20727;-73
